Terminal Aerodrome Forecast
Issued by NWS

Home | Current Version | Previous Version | Text Only | Print | Product List | Glossary On
Versions: 1 2 3 4 5 6 7 8 9 10 11 12 13 14 15 16 17 18 19 20 21 22 23 24 25 26 27 28 29 30 31 32 33 34 35 36 37
000
FTUS43 KPAH 241100
TAFOWB
TAF
KOWB 241120Z 2412/2512 35007KT 3SM BR OVC004
      TEMPO 2412/2414 1 1/2SM -RA BR
     FM241400 33010KT 4SM -RA BR SCT004 OVC010
      TEMPO 2414/2418 33012G20KT 2SM -RA BR OVC004
     FM242000 27011KT P6SM OVC012
     FM251000 25007KT P6SM SCT015=

USA.gov is the U.S. government's official web portal to all federal, state and local government web resources and services.